Time;durP1;ratioP1;P1;durP2;ratioP2;P2;SDS_P1;SDS_P2;PMS_P1;PMS_P2;Temp;Humidity;BMP_temperature;BMP_pressure;BME280_temperature;BME280_humidity;BME280_pressure;Samples;Min_cycle;Max_cycle;Signal;HPM_P1;HPM_P2
2023/08/04 00:03:39;;;;;;;1999.90;999.90;;;;;;;;;;6744512;88;20198;-83
2023/08/04 00:13:39;;;;;;;1999.90;999.90;;;;;;;;;;6741977;88;20244;-83
2023/08/04 00:23:40;;;;;;;1999.90;999.90;;;;;;;;;;6740792;88;20176;-83
2023/08/04 00:33:42;;;;;;;1999.90;999.90;;;;;;;;;;6741983;88;20203;-83
2023/08/04 00:43:43;;;;;;;1999.90;999.90;;;;;;;;;;6742769;88;20221;-83
2023/08/04 00:53:44;;;;;;;1999.90;999.90;;;;;;;;;;6738986;88;20185;-83
2023/08/04 01:03:45;;;;;;;1999.90;999.90;;;;;;;;;;6743085;88;20185;-82
2023/08/04 01:13:47;;;;;;;1999.90;999.90;;;;;;;;;;6741638;88;20212;-82
2023/08/04 01:23:48;;;;;;;1999.90;999.90;;;;;;;;;;6745633;88;20202;-83
2023/08/04 01:33:49;;;;;;;1999.90;999.90;;;;;;;;;;6743080;88;20664;-82
2023/08/04 01:43:50;;;;;;;1999.90;999.90;;;;;;;;;;6742991;88;20210;-83
2023/08/04 01:53:51;;;;;;;1999.90;999.90;;;;;;;;;;6723497;88;20207;-84
2023/08/04 02:03:52;;;;;;;1999.90;999.90;;;;;;;;;;6723264;88;20217;-82
2023/08/04 02:13:53;;;;;;;1999.90;999.90;;;;;;;;;;6722795;88;20194;-82
2023/08/04 02:23:54;;;;;;;1999.90;999.90;;;;;;;;;;6726657;88;20200;-82
2023/08/04 02:33:55;;;;;;;1999.90;999.90;;;;;;;;;;6725873;88;20218;-82
2023/08/04 02:43:56;;;;;;;1999.90;999.90;;;;;;;;;;6723212;88;20345;-84
2023/08/04 02:53:57;;;;;;;1999.90;999.90;;;;;;;;;;6722425;88;20214;-84
2023/08/04 03:03:58;;;;;;;1999.90;999.90;;;;;;;;;;6721746;88;20213;-81
2023/08/04 03:13:59;;;;;;;1999.90;999.90;;;;;;;;;;6722025;88;20207;-84
2023/08/04 03:24:00;;;;;;;1999.90;999.90;;;;;;;;;;6721261;88;20200;-84
2023/08/04 03:34:01;;;;;;;1999.90;999.90;;;;;;;;;;6722684;88;20256;-82
2023/08/04 03:44:02;;;;;;;1999.90;999.90;;;;;;;;;;6725901;88;20212;-82
2023/08/04 03:54:04;;;;;;;1999.90;999.90;;;;;;;;;;6724447;88;20209;-82
2023/08/04 04:04:05;;;;;;;1999.90;999.90;;;;;;;;;;6737414;88;20200;-82
2023/08/04 04:14:06;;;;;;;1999.90;999.90;;;;;;;;;;6741468;88;20221;-83
2023/08/04 04:24:07;;;;;;;1999.90;999.90;;;;;;;;;;6737798;88;20197;-83
2023/08/04 04:34:08;;;;;;;1999.90;999.90;;;;;;;;;;6740668;88;20177;-83
2023/08/04 04:44:09;;;;;;;1999.90;999.90;;;;;;;;;;6740975;88;20665;-83
2023/08/04 04:54:10;;;;;;;1999.90;999.90;;;;;;;;;;6720220;88;20183;-82
2023/08/04 05:04:11;;;;;;;1999.90;999.90;;;;;;;;;;6724321;88;20260;-82
2023/08/04 05:14:12;;;;;;;1999.90;999.90;;;;;;;;;;6726471;88;20190;-83
2023/08/04 05:24:14;;;;;;;1999.90;999.90;;;;;;;;;;6725688;88;20177;-82
2023/08/04 05:34:14;;;;;;;1999.90;999.90;;;;;;;;;;6727193;88;20238;-83
2023/08/04 05:44:16;;;;;;;1999.90;999.90;;;;;;;;;;6724980;88;20657;-82
2023/08/04 05:54:16;;;;;;;1999.90;999.90;;;;;;;;;;6718709;88;20197;-84
2023/08/04 06:04:17;;;;;;;1999.90;999.90;;;;;;;;;;6722425;88;20248;-81
2023/08/04 06:14:18;;;;;;;1999.90;999.90;;;;;;;;;;6722526;88;20178;-83
2023/08/04 06:24:27;;;;;;;1999.90;999.90;;;;;;;;;;6722464;88;20683;-82
2023/08/04 06:34:28;;;;;;;1999.90;999.90;;;;;;;;;;6722323;88;20267;-81
2023/08/04 06:44:29;;;;;;;1999.90;999.90;;;;;;;;;;6718312;88;20177;-82
2023/08/04 06:54:30;;;;;;;1999.90;999.90;;;;;;;;;;6721442;88;20334;-83
2023/08/04 07:04:31;;;;;;;1999.90;999.90;;;;;;;;;;6719780;88;20197;-82
2023/08/04 07:14:32;;;;;;;1999.90;999.90;;;;;;;;;;6722829;88;20312;-83
2023/08/04 07:24:33;;;;;;;1999.90;999.90;;;;;;;;;;6725885;88;20209;-82
2023/08/04 07:34:54;;;;;;;1999.90;999.90;;;;;;;;;;6733132;77;20207;-78
2023/08/04 07:44:55;;;;;;;1999.90;999.90;;;;;;;;;;6725929;88;20287;-78
2023/08/04 07:54:56;;;;;;;1999.90;999.90;;;;;;;;;;6721266;88;20207;-79
2023/08/04 08:04:58;;;;;;;1999.90;999.90;;;;;;;;;;6722967;88;20292;-79
2023/08/04 08:14:59;;;;;;;1999.90;999.90;;;;;;;;;;6715236;88;20276;-78
2023/08/04 08:25:00;;;;;;;1999.90;999.90;;;;;;;;;;6706512;88;20273;-78
2023/08/04 08:35:01;;;;;;;1999.90;999.90;;;;;;;;;;6707063;88;20640;-78
2023/08/04 08:45:02;;;;;;;1999.90;999.90;;;;;;;;;;6714323;88;20613;-79
2023/08/04 08:55:04;;;;;;;1999.90;999.90;;;;;;;;;;6724396;88;20345;-79
2023/08/04 09:05:05;;;;;;;1999.90;999.90;;;;;;;;;;6724051;88;20181;-78
2023/08/04 09:15:06;;;;;;;1999.90;999.90;;;;;;;;;;6721906;88;20241;-79
2023/08/04 09:25:07;;;;;;;1999.90;999.90;;;;;;;;;;6718057;88;20186;-79
2023/08/04 09:35:08;;;;;;;1999.90;999.90;;;;;;;;;;6705015;88;20207;-78
2023/08/04 09:45:14;;;;;;;1999.90;999.90;;;;;;;;;;6706777;88;20185;-79
2023/08/04 09:55:15;;;;;;;1999.90;999.90;;;;;;;;;;6707247;88;20223;-78
2023/08/04 10:05:16;;;;;;;1999.90;999.90;;;;;;;;;;6722884;88;20332;-79
2023/08/04 10:15:17;;;;;;;1999.90;999.90;;;;;;;;;;6716312;88;20231;-78
2023/08/04 10:25:18;;;;;;;1999.90;999.90;;;;;;;;;;6716281;88;20189;-78
2023/08/04 10:35:21;;;;;;;1999.90;999.90;;;;;;;;;;6720489;88;20604;-78
2023/08/04 10:45:22;;;;;;;1999.90;999.90;;;;;;;;;;6712088;88;20190;-78
2023/08/04 10:55:25;;;;;;;1999.90;999.90;;;;;;;;;;6703156;88;20244;-77
2023/08/04 11:05:27;;;;;;;1999.90;999.90;;;;;;;;;;6719320;88;20826;-79
2023/08/04 11:15:28;;;;;;;1999.90;999.90;;;;;;;;;;6729247;88;20180;-79
2023/08/04 11:25:33;;;;;;;1999.90;999.90;;;;;;;;;;6732668;88;20209;-80
2023/08/04 11:35:34;;;;;;;;;;;;;;;;;;6737965;88;20177;-80
2023/08/04 11:45:35;;;;;;;1999.90;999.90;;;;;;;;;;6728250;88;20067;-81
2023/08/04 11:55:36;;;;;;;1999.90;999.90;;;;;;;;;;6730645;88;20278;-81
2023/08/04 12:05:38;;;;;;;1999.90;999.90;;;;;;;;;;6729973;88;20196;-81
2023/08/04 12:15:54;;;;;;;1999.90;999.90;;;;;;;;;;6715795;88;20225;-80
2023/08/04 12:25:55;;;;;;;1999.90;999.90;;;;;;;;;;6718450;88;20204;-80
2023/08/04 12:35:56;;;;;;;1999.90;999.90;;;;;;;;;;6717573;88;20225;-80
2023/08/04 12:45:57;;;;;;;1999.90;999.90;;;;;;;;;;6716229;88;20215;-81
2023/08/04 12:55:59;;;;;;;1999.90;999.90;;;;;;;;;;6716961;88;20198;-81
2023/08/04 13:06:00;;;;;;;1999.90;999.90;;;;;;;;;;6715712;88;20228;-81
2023/08/04 13:16:01;;;;;;;1999.90;999.90;;;;;;;;;;6716888;88;20212;-80
2023/08/04 13:26:05;;;;;;;1999.90;999.90;;;;;;;;;;6712368;88;20652;-80
2023/08/04 13:47:08;;;;;;;1999.90;999.90;;;;;;;;;;6765651;87;20132;-79
2023/08/04 13:57:09;;;;;;;1999.90;999.90;;;;;;;;;;6730111;88;20170;-80
2023/08/04 14:07:10;;;;;;;1999.90;999.90;;;;;;;;;;6746755;88;20274;-78
2023/08/04 14:17:11;;;;;;;1999.90;999.90;;;;;;;;;;6749612;88;20200;-80
2023/08/04 14:27:12;;;;;;;1999.90;999.90;;;;;;;;;;6749724;88;20182;-79
2023/08/04 14:37:14;;;;;;;1999.90;999.90;;;;;;;;;;6752046;88;20168;-85
2023/08/04 14:47:15;;;;;;;1999.90;999.90;;;;;;;;;;6746056;88;20200;-85
2023/08/04 14:57:16;;;;;;;1999.90;999.90;;;;;;;;;;6749648;88;20174;-86
2023/08/04 15:07:17;;;;;;;1999.90;999.90;;;;;;;;;;6745664;88;20224;-83
2023/08/04 15:17:18;;;;;;;1999.90;999.90;;;;;;;;;;6748949;88;20267;-84
2023/08/04 15:27:19;;;;;;;1999.90;999.90;;;;;;;;;;6748765;88;20193;-85
2023/08/04 15:37:20;;;;;;;1999.90;999.90;;;;;;;;;;6751883;88;20186;-86
2023/08/04 15:47:21;;;;;;;1999.90;999.90;;;;;;;;;;6751524;88;20185;-86
2023/08/04 15:57:22;;;;;;;1999.90;999.90;;;;;;;;;;6751142;88;20305;-84
2023/08/04 16:07:23;;;;;;;1999.90;999.90;;;;;;;;;;6751779;88;20186;-84
2023/08/04 16:17:24;;;;;;;1999.90;999.90;;;;;;;;;;6747213;88;20739;-84
2023/08/04 16:27:25;;;;;;;1999.90;999.90;;;;;;;;;;6751164;88;20194;-83
2023/08/04 16:37:27;;;;;;;1999.90;999.90;;;;;;;;;;6750738;88;20306;-84
2023/08/04 16:47:28;;;;;;;1999.90;999.90;;;;;;;;;;6749352;88;20228;-85
2023/08/04 16:57:29;;;;;;;1999.90;999.90;;;;;;;;;;6751654;88;20184;-83
2023/08/04 17:37:42;;;;;;;1999.90;999.90;;;;;;;;;;6684666;89;20208;-85
2023/08/04 17:47:43;;;;;;;1999.90;999.90;;;;;;;;;;6679740;89;20312;-84
2023/08/04 17:57:44;;;;;;;1999.90;999.90;;;;;;;;;;6679008;89;20294;-86
2023/08/04 18:07:45;;;;;;;1999.90;999.90;;;;;;;;;;6681209;89;20254;-83
2023/08/04 18:17:46;;;;;;;1999.90;999.90;;;;;;;;;;6676818;89;20199;-86
2023/08/04 18:27:47;;;;;;;1999.90;999.90;;;;;;;;;;6680487;89;20190;-85
2023/08/04 18:37:48;;;;;;;1999.90;999.90;;;;;;;;;;6695278;89;20187;-88
2023/08/04 18:47:49;;;;;;;1999.90;999.90;;;;;;;;;;6696947;88;20201;-85
2023/08/04 18:57:50;;;;;;;1999.90;999.90;;;;;;;;;;6691258;89;20176;-85
2023/08/04 19:07:51;;;;;;;1999.90;999.90;;;;;;;;;;6695310;89;20199;-84
2023/08/04 19:17:52;;;;;;;1999.90;999.90;;;;;;;;;;6695337;89;20246;-85
2023/08/04 19:27:53;;;;;;;1999.90;999.90;;;;;;;;;;6696620;89;20191;-86
2023/08/04 19:37:54;;;;;;;1999.90;999.90;;;;;;;;;;6697013;89;20163;-85
2023/08/04 19:47:55;;;;;;;1999.90;999.90;;;;;;;;;;6695330;89;20211;-84
2023/08/04 19:57:56;;;;;;;1999.90;999.90;;;;;;;;;;6694045;89;20406;-84
2023/08/04 20:07:57;;;;;;;1999.90;999.90;;;;;;;;;;6691411;89;20276;-84
2023/08/04 20:17:59;;;;;;;1999.90;999.90;;;;;;;;;;6695823;89;20183;-83
2023/08/04 20:28:00;;;;;;;1999.90;999.90;;;;;;;;;;6697699;89;20215;-87
2023/08/04 20:38:01;;;;;;;1999.90;999.90;;;;;;;;;;6697114;89;20187;-85
2023/08/04 20:48:02;;;;;;;1999.90;999.90;;;;;;;;;;6697742;89;20239;-82
2023/08/04 20:58:03;;;;;;;1999.90;999.90;;;;;;;;;;6690093;89;20179;-83
2023/08/04 21:08:04;;;;;;;1999.90;999.90;;;;;;;;;;6693918;89;20711;-83
2023/08/04 21:18:05;;;;;;;1999.90;999.90;;;;;;;;;;6691455;89;20219;-86
2023/08/04 21:28:06;;;;;;;1999.90;999.90;;;;;;;;;;6695726;89;20206;-84
2023/08/04 21:48:13;;;;;;;1999.90;999.90;;;;;;;;;;6732278;88;20287;-84
2023/08/04 22:09:16;;;;;;;1999.90;999.90;;;;;;;;;;6766630;88;20173;-83
2023/08/04 22:19:19;;;;;;;1999.90;999.90;;;;;;;;;;6749711;88;20642;-82
2023/08/04 22:29:20;;;;;;;1999.90;999.90;;;;;;;;;;6729177;88;20202;-82
2023/08/04 22:39:22;;;;;;;1999.90;999.90;;;;;;;;;;6727991;88;20177;-85
2023/08/04 22:49:23;;;;;;;1999.90;999.90;;;;;;;;;;6736182;88;20201;-81
2023/08/04 23:40:18;;;;;;;1999.90;999.90;;;;;;;;;;7437844;77;20256;-82
2023/08/04 23:50:19;;;;;;;1999.90;999.90;;;;;;;;;;6768070;88;20189;-83
